Allerton, Iowa
Current Conditions -  °F | °C
As of 11:55 AM on Wednesday 28 Jan 2015 (Local Time) from KCNC Reporting Station
Clear Clear  
Wind Chill:   Ceiling: Unl
Heat Index:   Visibility: 10mi
Dew Point:   Wind: 20mph
Humidity: 70%   Direction: 170°S
Pressure: 29.88"   Gusts: NA
Location:  40.71°N, 93.37°W
Report Text: KCNC 281755Z AUTO 17017KT 10SM CLR 06/01 A2988 RMK AO2
Loading
Personal Weather Stations






























Interactive Weather Map New forecast layout! Learn more

10-Day Weather Forecast

Advertisements
Track Severe Weather on mobile